AirNav   Everest Fuels
 
 351 users online  

SC90 Do-Little Field Airport
St Matthews, South Carolina, USA

GOING TO ST MATTHEWS?


FAA INFORMATION EFFECTIVE 21 MAY 2020

Location

FAA Identifier: SC90
Lat/Long: 33-40-35.7300N 080-56-53.3300W
33-40.595500N 080-56.888833W
33.6765917,-80.9481472
(estimated)
Elevation: 369 ft. / 112 m (estimated)
Variation: 05W (1990)
From city: 9 miles W of ST. MATTHEWS, SC
Time zone: UTC -4 (UTC -5 during Standard Time)
Zip code: 29135

Airport Operations

Airport use: Private use. Permission required prior to landing
Activation date: 06/1993
Control tower: no
ARTCC: JACKSONVILLE CENTER
FSS: ANDERSON FLIGHT SERVICE STATION
Attendance: UNATNDD
Wind indicator: yes
Segmented circle: no

Airport Communications

WX ASOS at OGB (14 nm S): 118.525 (803-536-3901)
WX ASOS at CUB (18 nm N): 118.675 (803-929-0665)
WX ASOS at CAE (18 nm NW): 120.15 (803-822-4168)

Nearby radio navigation aids

VOR radial/distance  VOR name  Freq  Var
CAEr156/12.1COLUMBIA VORTAC114.7002W
MMTr214/16.5MC ENTIRE VORTAC113.2008W
VANr302/27.7VANCE VORTAC110.4006W

 
NDB name  Hdg/Dist  Freq  Var  ID
SUMTER244/34.925207WSMS ... -- ...
AIKEN094/36.434706WAIK .- .. -.-
MANNING284/37.438106WMNI -- -. ..

Airport Services

Runway Information

Runway 14/32

Dimensions: 3200 x 100 ft. / 975 x 30 m
Surface: turf
RUNWAY 14  RUNWAY 32
Traffic pattern: leftright

Airport Ownership and Management from official FAA records

Ownership: Privately-owned
Owner: DO-LITTLE FIELD INC
160 DO LITTLE LANE
ST MATTHEWS, SC 29135
Phone 803-874-4281
Manager: BILL MITCHELL
35 DOOLITTLE LN
ST MATTHEWS, SC 29135
Phone 803-874-1310

Airport Operational Statistics

Aircraft based on the field: 9
Single engine airplanes: 9
    

Additional Remarks

FOR CD CTC COLUMBIA APCH AT 803-822-5242 OR 803-822-5040.

Instrument Procedures

There are no published instrument procedures at SC90.

Some nearby airports with instrument procedures:

KXNO - North Air Force Auxiliary Field (8 nm SW)
KOGB - Orangeburg Municipal Airport (14 nm S)
KMMT - Mc Entire Joint National Guard Base (16 nm NE)
6J0 - Lexington County Airport (16 nm NW)
KCUB - Jim Hamilton L B Owens Airport (18 nm N)
KCAE - Columbia Metropolitan Airport (18 nm NW)
 
Loc | Ops | Rwys | IFR | FBO | Links
Com | Nav | Svcs | Stats | Notes
Area around SC90 (Do-Little Field Airport)
 
Road maps at: MapQuest Bing Google
 
Aerial photo
WARNING: Photo may not be current or correct
Aerial photo of SC90 (Do-Little Field Airport)
Photo by Eddie Price
Photo taken 10-Nov-2012
looking west.

Do you have a better or more recent aerial photo of Do-Little Field Airport that you would like to share? If so, please send us your photo.

 
Sectional chart

 
Airport distance calculator
Flying to Do-Little Field Airport? Find the distance to fly.

From to SC90

Sunrise and sunset
Times for 05-Jun-2020
 Local
(UTC-4)
 Zulu
(UTC)
Morning civil twilight05:4509:45
Sunrise06:1410:14
Sunset20:3100:31
Evening civil twilight20:5900:59

Current date and time
Zulu (UTC)  05-Jun-2020 09:15:33
Local (UTC-4)  05-Jun-2020 05:15:33
 
METAR
KXNO 
8nm SW 
050901Z AUTO 00000KT 10SM BKN005 OVC009 22/22 A2997 RMK AO2 CIG 005V007 SLP149 $
KOGB 
14nm S 
050853Z AUTO 20003KT 10SM BKN010 OVC013 23/21 A2997 RMK AO2 CIG 009V013 SLP146 60000 T02280211 55001
KMMT 
17nm NE 
050856Z AUTO 24003KT 10SM OVC011 22/22 A2997 RMK AO2 SLP149 60000 T02230223 55000 $
KCAE 
18nm NW 
050856Z 00000KT 10SM OVC011 22/20 A2996 RMK AO2 SLP141 T02170200 53002
KCUB 
18nm N 
050853Z AUTO 22003KT 10SM OVC012 22/21 A2997 RMK AO2 SLP146 T02220211 55001
TAF
KOGB 
14nm S 
050708Z 0507/0606 23005KT P6SM OVC008 FM051300 24005KT P6SM BKN020 FM051500 22006KT P6SM VCSH SCT020 BKN060 FM052100 22008KT P6SM VCTS BKN060CB
KMMT 
17nm NE 
050700Z 0507/0613 VRB06KT 8000 BR BKN010 QNH2993INS BECMG 0515/0516 VRB06KT 9000 BR BKN025 QNH2999INS BECMG 0517/0518 23010G15KT 8000 -SHRA BKN030 QNH2995INS TEMPO 0518/0602 VRB15G25KT 4800 TSRA OVC030CB BECMG 0605/0606 VRB06KT 9999 NSW SCT015 BKN030 QNH2995INS BECMG 0609/0610 VRB06KT 9000 BR BKN030 QNH2996INS TX31/0520Z TN21/0510Z
KCAE 
18nm NW 
050531Z 0506/0606 VRB03KT P6SM BKN012 OVC020 TEMPO 0508/0511 BKN008 FM051300 23004KT P6SM BKN020 FM051500 24007KT P6SM VCSH SCT020 BKN060 FM052100 22010KT P6SM VCTS BKN060CB
KCUB 
18nm N 
050531Z 0506/0606 00000KT P6SM BKN012 OVC020 TEMPO 0508/0511 BKN008 FM051300 23003KT P6SM BKN020 FM051500 23007KT P6SM VCSH SCT020 BKN060 FM052100 23009KT P6SM VCTS BKN060CB
NOTAMs
Click for the latest NOTAMs
NOTAMs are issued by the DoD/FAA and will open in a separate window not controlled by AirNav.

 

 
 

Would you like to see your business listed on this page?

 If your business provides an interesting product or service to pilots, flight crews, aircraft, or users of the Do-Little Field Airport, you should consider listing it here.  To start the listing process, click on the button below
 
Add a business
 

Other Pages about Do-Little Field Airport

Update a link
 
Copyright © AirNav, LLC. All rights reserved. Privacy Policy  Contact